sensor_id;sensor_type;location;lat;lon;timestamp;P1;durP1;ratioP1;P2;durP2;ratioP2
74241;SDS011;62599;49.146;10.426;2023-09-30T00:00:19;8.95;;;2.00;;
74241;SDS011;62599;49.146;10.426;2023-09-30T00:02:45;8.10;;;2.45;;
74241;SDS011;62599;49.146;10.426;2023-09-30T00:05:12;8.35;;;1.83;;
74241;SDS011;62599;49.146;10.426;2023-09-30T00:07:39;8.18;;;2.20;;
74241;SDS011;62599;49.146;10.426;2023-09-30T00:10:07;11.40;;;2.10;;
74241;SDS011;62599;49.146;10.426;2023-09-30T00:12:33;11.98;;;2.10;;
74241;SDS011;62599;49.146;10.426;2023-09-30T00:14:58;5.50;;;1.57;;
74241;SDS011;62599;49.146;10.426;2023-09-30T00:17:24;8.50;;;2.47;;
74241;SDS011;62599;49.146;10.426;2023-09-30T00:19:49;8.03;;;2.27;;
74241;SDS011;62599;49.146;10.426;2023-09-30T00:22:15;7.63;;;1.80;;
74241;SDS011;62599;49.146;10.426;2023-09-30T00:24:40;8.75;;;3.05;;
74241;SDS011;62599;49.146;10.426;2023-09-30T00:27:05;7.57;;;2.20;;
74241;SDS011;62599;49.146;10.426;2023-09-30T00:29:31;6.78;;;1.90;;
74241;SDS011;62599;49.146;10.426;2023-09-30T00:31:56;7.40;;;2.15;;
74241;SDS011;62599;49.146;10.426;2023-09-30T00:34:22;8.20;;;2.10;;
74241;SDS011;62599;49.146;10.426;2023-09-30T00:36:47;10.07;;;2.20;;
74241;SDS011;62599;49.146;10.426;2023-09-30T00:39:12;6.67;;;2.13;;
74241;SDS011;62599;49.146;10.426;2023-09-30T00:41:38;7.45;;;2.40;;
74241;SDS011;62599;49.146;10.426;2023-09-30T00:44:05;6.57;;;3.55;;
74241;SDS011;62599;49.146;10.426;2023-09-30T00:46:31;4.60;;;1.42;;
74241;SDS011;62599;49.146;10.426;2023-09-30T00:48:58;6.07;;;1.58;;
74241;SDS011;62599;49.146;10.426;2023-09-30T00:51:30;4.93;;;1.48;;
74241;SDS011;62599;49.146;10.426;2023-09-30T00:53:57;4.75;;;1.30;;
74241;SDS011;62599;49.146;10.426;2023-09-30T00:56:26;5.38;;;1.67;;
74241;SDS011;62599;49.146;10.426;2023-09-30T00:58:53;7.75;;;1.77;;
74241;SDS011;62599;49.146;10.426;2023-09-30T01:01:19;5.70;;;1.63;;
74241;SDS011;62599;49.146;10.426;2023-09-30T01:03:45;5.32;;;1.73;;
74241;SDS011;62599;49.146;10.426;2023-09-30T01:06:12;7.50;;;1.42;;
74241;SDS011;62599;49.146;10.426;2023-09-30T01:08:37;5.25;;;1.63;;
74241;SDS011;62599;49.146;10.426;2023-09-30T01:11:03;7.05;;;2.15;;
74241;SDS011;62599;49.146;10.426;2023-09-30T01:13:35;6.70;;;1.83;;
74241;SDS011;62599;49.146;10.426;2023-09-30T01:16:08;4.15;;;1.50;;
74241;SDS011;62599;49.146;10.426;2023-09-30T01:18:38;4.53;;;1.50;;
74241;SDS011;62599;49.146;10.426;2023-09-30T01:21:07;5.88;;;2.13;;
74241;SDS011;62599;49.146;10.426;2023-09-30T01:23:34;5.28;;;1.20;;
74241;SDS011;62599;49.146;10.426;2023-09-30T01:26:01;6.20;;;1.52;;
74241;SDS011;62599;49.146;10.426;2023-09-30T01:28:30;4.18;;;1.35;;
74241;SDS011;62599;49.146;10.426;2023-09-30T01:30:56;4.90;;;1.50;;
74241;SDS011;62599;49.146;10.426;2023-09-30T01:33:22;7.25;;;4.28;;
74241;SDS011;62599;49.146;10.426;2023-09-30T01:35:48;4.10;;;1.27;;
74241;SDS011;62599;49.146;10.426;2023-09-30T01:38:13;2.90;;;1.55;;
74241;SDS011;62599;49.146;10.426;2023-09-30T01:40:39;4.72;;;1.40;;
74241;SDS011;62599;49.146;10.426;2023-09-30T01:43:04;3.00;;;1.25;;
74241;SDS011;62599;49.146;10.426;2023-09-30T01:45:30;5.80;;;1.90;;
74241;SDS011;62599;49.146;10.426;2023-09-30T01:47:55;3.88;;;1.48;;
74241;SDS011;62599;49.146;10.426;2023-09-30T01:50:21;5.40;;;1.57;;
74241;SDS011;62599;49.146;10.426;2023-09-30T01:52:46;5.00;;;1.67;;
74241;SDS011;62599;49.146;10.426;2023-09-30T01:55:11;3.97;;;1.40;;
74241;SDS011;62599;49.146;10.426;2023-09-30T01:57:37;4.28;;;1.35;;
74241;SDS011;62599;49.146;10.426;2023-09-30T02:00:03;4.13;;;1.38;;
74241;SDS011;62599;49.146;10.426;2023-09-30T02:02:29;4.28;;;1.60;;
74241;SDS011;62599;49.146;10.426;2023-09-30T02:04:55;7.10;;;1.35;;
74241;SDS011;62599;49.146;10.426;2023-09-30T02:07:20;6.82;;;1.90;;
74241;SDS011;62599;49.146;10.426;2023-09-30T02:09:46;4.23;;;1.87;;
74241;SDS011;62599;49.146;10.426;2023-09-30T02:12:11;8.77;;;2.60;;
74241;SDS011;62599;49.146;10.426;2023-09-30T02:14:37;3.67;;;1.37;;
74241;SDS011;62599;49.146;10.426;2023-09-30T02:17:03;3.25;;;1.40;;
74241;SDS011;62599;49.146;10.426;2023-09-30T02:19:29;2.67;;;1.02;;
74241;SDS011;62599;49.146;10.426;2023-09-30T02:21:56;5.78;;;2.15;;
74241;SDS011;62599;49.146;10.426;2023-09-30T02:24:22;4.22;;;1.80;;
74241;SDS011;62599;49.146;10.426;2023-09-30T02:26:48;5.30;;;1.63;;
74241;SDS011;62599;49.146;10.426;2023-09-30T02:29:15;4.85;;;1.70;;
74241;SDS011;62599;49.146;10.426;2023-09-30T02:31:40;2.17;;;1.10;;
74241;SDS011;62599;49.146;10.426;2023-09-30T02:34:06;4.53;;;0.80;;
74241;SDS011;62599;49.146;10.426;2023-09-30T02:36:32;1.90;;;0.88;;
74241;SDS011;62599;49.146;10.426;2023-09-30T02:38:58;2.95;;;1.17;;
74241;SDS011;62599;49.146;10.426;2023-09-30T02:41:24;1.10;;;0.90;;
74241;SDS011;62599;49.146;10.426;2023-09-30T02:43:49;4.50;;;1.02;;
74241;SDS011;62599;49.146;10.426;2023-09-30T02:46:15;2.90;;;1.23;;
74241;SDS011;62599;49.146;10.426;2023-09-30T02:48:40;2.47;;;0.97;;
74241;SDS011;62599;49.146;10.426;2023-09-30T02:51:09;1.67;;;0.83;;
74241;SDS011;62599;49.146;10.426;2023-09-30T02:53:36;3.20;;;0.85;;
74241;SDS011;62599;49.146;10.426;2023-09-30T02:56:01;3.22;;;0.90;;
74241;SDS011;62599;49.146;10.426;2023-09-30T02:58:27;2.88;;;0.80;;
74241;SDS011;62599;49.146;10.426;2023-09-30T03:00:54;4.63;;;1.02;;
74241;SDS011;62599;49.146;10.426;2023-09-30T03:03:19;2.90;;;1.15;;
74241;SDS011;62599;49.146;10.426;2023-09-30T03:05:44;2.70;;;0.77;;
74241;SDS011;62599;49.146;10.426;2023-09-30T03:08:10;4.93;;;1.02;;
74241;SDS011;62599;49.146;10.426;2023-09-30T03:10:36;3.35;;;1.10;;
74241;SDS011;62599;49.146;10.426;2023-09-30T03:13:05;1.08;;;0.60;;
74241;SDS011;62599;49.146;10.426;2023-09-30T03:15:31;3.97;;;1.00;;
74241;SDS011;62599;49.146;10.426;2023-09-30T03:17:57;4.57;;;1.10;;
74241;SDS011;62599;49.146;10.426;2023-09-30T03:20:24;2.30;;;1.63;;
74241;SDS011;62599;49.146;10.426;2023-09-30T03:22:50;2.13;;;0.88;;
74241;SDS011;62599;49.146;10.426;2023-09-30T03:25:16;1.88;;;1.00;;
74241;SDS011;62599;49.146;10.426;2023-09-30T03:27:43;1.90;;;0.65;;
74241;SDS011;62599;49.146;10.426;2023-09-30T03:30:11;2.75;;;0.90;;
74241;SDS011;62599;49.146;10.426;2023-09-30T03:32:37;5.07;;;0.73;;
74241;SDS011;62599;49.146;10.426;2023-09-30T03:35:10;3.67;;;0.65;;
74241;SDS011;62599;49.146;10.426;2023-09-30T03:37:39;1.85;;;0.60;;
74241;SDS011;62599;49.146;10.426;2023-09-30T03:40:06;2.25;;;0.80;;
74241;SDS011;62599;49.146;10.426;2023-09-30T03:42:43;5.30;;;1.58;;
74241;SDS011;62599;49.146;10.426;2023-09-30T03:45:09;1.23;;;0.90;;
74241;SDS011;62599;49.146;10.426;2023-09-30T03:47:36;2.88;;;0.93;;
74241;SDS011;62599;49.146;10.426;2023-09-30T03:50:02;7.93;;;1.13;;
74241;SDS011;62599;49.146;10.426;2023-09-30T03:52:28;5.00;;;1.05;;
74241;SDS011;62599;49.146;10.426;2023-09-30T03:54:54;3.10;;;1.45;;
74241;SDS011;62599;49.146;10.426;2023-09-30T03:57:19;2.38;;;1.13;;
74241;SDS011;62599;49.146;10.426;2023-09-30T03:59:45;2.72;;;1.17;;
74241;SDS011;62599;49.146;10.426;2023-09-30T04:02:13;2.90;;;0.80;;
74241;SDS011;62599;49.146;10.426;2023-09-30T04:04:39;5.07;;;1.00;;
74241;SDS011;62599;49.146;10.426;2023-09-30T04:07:05;6.13;;;1.45;;
74241;SDS011;62599;49.146;10.426;2023-09-30T04:09:34;4.30;;;0.95;;
74241;SDS011;62599;49.146;10.426;2023-09-30T04:11:59;5.38;;;1.10;;
74241;SDS011;62599;49.146;10.426;2023-09-30T04:14:26;2.50;;;0.88;;
74241;SDS011;62599;49.146;10.426;2023-09-30T04:16:51;4.33;;;1.30;;
74241;SDS011;62599;49.146;10.426;2023-09-30T04:19:19;4.22;;;1.27;;
74241;SDS011;62599;49.146;10.426;2023-09-30T04:21:45;3.45;;;0.95;;
74241;SDS011;62599;49.146;10.426;2023-09-30T04:24:11;4.60;;;1.65;;
74241;SDS011;62599;49.146;10.426;2023-09-30T04:26:37;5.27;;;0.97;;
74241;SDS011;62599;49.146;10.426;2023-09-30T04:29:03;2.30;;;0.80;;
74241;SDS011;62599;49.146;10.426;2023-09-30T04:31:29;4.15;;;1.15;;
74241;SDS011;62599;49.146;10.426;2023-09-30T04:33:55;4.53;;;1.05;;
74241;SDS011;62599;49.146;10.426;2023-09-30T04:36:22;3.00;;;0.88;;
74241;SDS011;62599;49.146;10.426;2023-09-30T04:38:48;3.17;;;1.02;;
74241;SDS011;62599;49.146;10.426;2023-09-30T04:41:13;2.10;;;0.90;;
74241;SDS011;62599;49.146;10.426;2023-09-30T04:43:40;3.35;;;1.27;;
74241;SDS011;62599;49.146;10.426;2023-09-30T04:46:06;4.05;;;1.00;;
74241;SDS011;62599;49.146;10.426;2023-09-30T04:48:35;7.63;;;1.40;;
74241;SDS011;62599;49.146;10.426;2023-09-30T04:51:00;3.50;;;1.30;;
74241;SDS011;62599;49.146;10.426;2023-09-30T04:53:29;4.65;;;1.48;;
74241;SDS011;62599;49.146;10.426;2023-09-30T04:55:55;4.18;;;0.88;;
74241;SDS011;62599;49.146;10.426;2023-09-30T04:58:20;3.10;;;0.90;;
74241;SDS011;62599;49.146;10.426;2023-09-30T05:00:52;2.37;;;1.20;;
74241;SDS011;62599;49.146;10.426;2023-09-30T05:03:17;3.85;;;1.27;;
74241;SDS011;62599;49.146;10.426;2023-09-30T05:05:50;2.95;;;1.33;;
74241;SDS011;62599;49.146;10.426;2023-09-30T05:08:18;3.25;;;1.30;;
74241;SDS011;62599;49.146;10.426;2023-09-30T05:10:43;2.55;;;0.90;;
74241;SDS011;62599;49.146;10.426;2023-09-30T05:13:09;4.33;;;1.40;;
74241;SDS011;62599;49.146;10.426;2023-09-30T05:15:35;1.95;;;0.82;;
74241;SDS011;62599;49.146;10.426;2023-09-30T05:18:00;3.57;;;1.20;;
74241;SDS011;62599;49.146;10.426;2023-09-30T05:20:27;5.28;;;0.90;;
74241;SDS011;62599;49.146;10.426;2023-09-30T05:22:55;7.50;;;1.30;;
74241;SDS011;62599;49.146;10.426;2023-09-30T05:25:21;2.55;;;0.85;;
74241;SDS011;62599;49.146;10.426;2023-09-30T05:27:51;2.65;;;1.35;;
74241;SDS011;62599;49.146;10.426;2023-09-30T05:30:16;3.83;;;1.48;;
74241;SDS011;62599;49.146;10.426;2023-09-30T05:32:44;4.80;;;1.02;;
74241;SDS011;62599;49.146;10.426;2023-09-30T05:35:11;5.55;;;1.70;;
74241;SDS011;62599;49.146;10.426;2023-09-30T05:37:38;2.75;;;1.55;;
74241;SDS011;62599;49.146;10.426;2023-09-30T05:40:04;5.13;;;1.35;;
74241;SDS011;62599;49.146;10.426;2023-09-30T05:42:41;4.07;;;1.65;;
74241;SDS011;62599;49.146;10.426;2023-09-30T05:45:08;5.53;;;1.13;;
74241;SDS011;62599;49.146;10.426;2023-09-30T05:47:34;2.90;;;1.50;;
74241;SDS011;62599;49.146;10.426;2023-09-30T05:50:00;3.50;;;1.27;;
74241;SDS011;62599;49.146;10.426;2023-09-30T05:52:25;3.73;;;1.57;;
74241;SDS011;62599;49.146;10.426;2023-09-30T05:54:50;3.47;;;1.40;;
74241;SDS011;62599;49.146;10.426;2023-09-30T05:57:16;5.55;;;1.20;;
74241;SDS011;62599;49.146;10.426;2023-09-30T05:59:41;4.73;;;1.30;;
74241;SDS011;62599;49.146;10.426;2023-09-30T06:02:07;7.35;;;2.00;;
74241;SDS011;62599;49.146;10.426;2023-09-30T06:04:33;3.13;;;1.42;;
74241;SDS011;62599;49.146;10.426;2023-09-30T06:06:58;5.47;;;1.30;;
74241;SDS011;62599;49.146;10.426;2023-09-30T06:09:23;4.03;;;1.63;;
74241;SDS011;62599;49.146;10.426;2023-09-30T06:11:50;4.63;;;1.48;;
74241;SDS011;62599;49.146;10.426;2023-09-30T06:14:15;3.83;;;1.15;;
74241;SDS011;62599;49.146;10.426;2023-09-30T06:16:41;6.37;;;1.00;;
74241;SDS011;62599;49.146;10.426;2023-09-30T06:19:06;5.10;;;1.43;;
74241;SDS011;62599;49.146;10.426;2023-09-30T06:21:31;5.27;;;1.30;;
74241;SDS011;62599;49.146;10.426;2023-09-30T06:23:59;2.17;;;1.00;;
74241;SDS011;62599;49.146;10.426;2023-09-30T06:26:25;3.22;;;1.00;;
74241;SDS011;62599;49.146;10.426;2023-09-30T06:28:51;4.93;;;1.20;;
74241;SDS011;62599;49.146;10.426;2023-09-30T06:31:18;4.88;;;1.70;;
74241;SDS011;62599;49.146;10.426;2023-09-30T06:33:44;6.15;;;1.42;;
74241;SDS011;62599;49.146;10.426;2023-09-30T06:36:09;1.95;;;1.30;;
74241;SDS011;62599;49.146;10.426;2023-09-30T06:38:35;4.47;;;1.30;;
74241;SDS011;62599;49.146;10.426;2023-09-30T06:41:02;2.45;;;1.13;;
74241;SDS011;62599;49.146;10.426;2023-09-30T06:43:27;3.60;;;1.50;;
74241;SDS011;62599;49.146;10.426;2023-09-30T06:45:53;2.60;;;0.82;;
74241;SDS011;62599;49.146;10.426;2023-09-30T06:48:19;3.85;;;0.90;;
74241;SDS011;62599;49.146;10.426;2023-09-30T06:50:46;5.13;;;1.13;;
74241;SDS011;62599;49.146;10.426;2023-09-30T06:53:13;3.90;;;1.15;;
74241;SDS011;62599;49.146;10.426;2023-09-30T06:55:43;3.55;;;1.00;;
74241;SDS011;62599;49.146;10.426;2023-09-30T06:58:09;3.70;;;0.90;;
74241;SDS011;62599;49.146;10.426;2023-09-30T07:00:36;2.45;;;0.80;;
74241;SDS011;62599;49.146;10.426;2023-09-30T07:03:07;3.28;;;1.02;;
74241;SDS011;62599;49.146;10.426;2023-09-30T07:05:35;3.47;;;1.30;;
74241;SDS011;62599;49.146;10.426;2023-09-30T07:08:01;2.78;;;0.93;;
74241;SDS011;62599;49.146;10.426;2023-09-30T07:10:27;2.38;;;1.10;;
74241;SDS011;62599;49.146;10.426;2023-09-30T07:12:54;6.13;;;1.38;;
74241;SDS011;62599;49.146;10.426;2023-09-30T07:15:19;2.65;;;1.13;;
74241;SDS011;62599;49.146;10.426;2023-09-30T07:17:45;3.33;;;1.20;;
74241;SDS011;62599;49.146;10.426;2023-09-30T07:20:12;4.20;;;1.10;;
74241;SDS011;62599;49.146;10.426;2023-09-30T07:22:38;2.15;;;1.10;;
74241;SDS011;62599;49.146;10.426;2023-09-30T07:25:03;2.73;;;1.20;;
74241;SDS011;62599;49.146;10.426;2023-09-30T07:27:29;2.05;;;1.60;;
74241;SDS011;62599;49.146;10.426;2023-09-30T07:29:55;4.70;;;1.45;;
74241;SDS011;62599;49.146;10.426;2023-09-30T07:32:20;3.42;;;1.17;;
74241;SDS011;62599;49.146;10.426;2023-09-30T07:34:48;6.97;;;2.00;;
74241;SDS011;62599;49.146;10.426;2023-09-30T07:37:14;3.63;;;1.30;;
74241;SDS011;62599;49.146;10.426;2023-09-30T07:39:40;2.33;;;1.30;;
74241;SDS011;62599;49.146;10.426;2023-09-30T07:42:08;3.90;;;1.17;;
74241;SDS011;62599;49.146;10.426;2023-09-30T07:44:34;5.93;;;1.40;;
74241;SDS011;62599;49.146;10.426;2023-09-30T07:47:02;5.72;;;1.77;;
74241;SDS011;62599;49.146;10.426;2023-09-30T07:49:34;2.58;;;1.13;;
74241;SDS011;62599;49.146;10.426;2023-09-30T07:52:00;2.63;;;1.00;;
74241;SDS011;62599;49.146;10.426;2023-09-30T07:54:25;4.80;;;1.63;;
74241;SDS011;62599;49.146;10.426;2023-09-30T07:56:51;2.92;;;1.30;;
74241;SDS011;62599;49.146;10.426;2023-09-30T07:59:16;4.18;;;1.48;;
74241;SDS011;62599;49.146;10.426;2023-09-30T08:01:42;3.50;;;1.42;;
74241;SDS011;62599;49.146;10.426;2023-09-30T08:04:08;4.45;;;1.52;;
74241;SDS011;62599;49.146;10.426;2023-09-30T08:06:33;2.77;;;1.00;;
74241;SDS011;62599;49.146;10.426;2023-09-30T08:08:59;2.77;;;1.60;;
74241;SDS011;62599;49.146;10.426;2023-09-30T08:11:30;3.80;;;1.20;;
74241;SDS011;62599;49.146;10.426;2023-09-30T08:13:58;4.68;;;1.75;;
74241;SDS011;62599;49.146;10.426;2023-09-30T08:16:24;5.57;;;1.90;;
74241;SDS011;62599;49.146;10.426;2023-09-30T08:18:49;2.92;;;1.02;;
74241;SDS011;62599;49.146;10.426;2023-09-30T08:21:15;5.25;;;1.67;;
74241;SDS011;62599;49.146;10.426;2023-09-30T08:23:46;5.80;;;1.42;;
74241;SDS011;62599;49.146;10.426;2023-09-30T08:26:21;5.32;;;1.70;;
74241;SDS011;62599;49.146;10.426;2023-09-30T08:28:49;7.72;;;1.85;;
74241;SDS011;62599;49.146;10.426;2023-09-30T08:31:15;4.78;;;1.80;;
74241;SDS011;62599;49.146;10.426;2023-09-30T08:33:40;3.50;;;2.00;;
74241;SDS011;62599;49.146;10.426;2023-09-30T08:36:09;4.18;;;2.33;;
74241;SDS011;62599;49.146;10.426;2023-09-30T08:38:39;6.43;;;3.10;;
74241;SDS011;62599;49.146;10.426;2023-09-30T08:41:06;8.27;;;2.72;;
74241;SDS011;62599;49.146;10.426;2023-09-30T08:43:39;11.95;;;2.33;;
74241;SDS011;62599;49.146;10.426;2023-09-30T08:46:06;5.20;;;2.83;;
74241;SDS011;62599;49.146;10.426;2023-09-30T08:48:33;3.20;;;1.60;;
74241;SDS011;62599;49.146;10.426;2023-09-30T08:51:00;6.90;;;2.85;;
74241;SDS011;62599;49.146;10.426;2023-09-30T08:53:26;6.65;;;2.97;;
74241;SDS011;62599;49.146;10.426;2023-09-30T08:55:55;5.38;;;2.78;;
74241;SDS011;62599;49.146;10.426;2023-09-30T08:58:24;7.40;;;2.72;;
74241;SDS011;62599;49.146;10.426;2023-09-30T09:00:57;5.32;;;3.08;;
74241;SDS011;62599;49.146;10.426;2023-09-30T09:03:23;4.85;;;1.88;;
74241;SDS011;62599;49.146;10.426;2023-09-30T09:05:55;8.00;;;2.30;;
74241;SDS011;62599;49.146;10.426;2023-09-30T09:08:25;6.05;;;2.10;;
74241;SDS011;62599;49.146;10.426;2023-09-30T09:10:58;5.60;;;3.28;;
74241;SDS011;62599;49.146;10.426;2023-09-30T09:13:44;6.80;;;3.22;;
74241;SDS011;62599;49.146;10.426;2023-09-30T09:16:21;8.27;;;3.30;;
74241;SDS011;62599;49.146;10.426;2023-09-30T09:18:48;4.40;;;2.80;;
74241;SDS011;62599;49.146;10.426;2023-09-30T09:21:14;5.63;;;2.80;;
74241;SDS011;62599;49.146;10.426;2023-09-30T09:23:41;5.93;;;1.92;;
74241;SDS011;62599;49.146;10.426;2023-09-30T09:26:32;3.53;;;2.10;;
74241;SDS011;62599;49.146;10.426;2023-09-30T09:29:00;6.90;;;2.78;;
74241;SDS011;62599;49.146;10.426;2023-09-30T09:31:27;8.65;;;3.03;;
74241;SDS011;62599;49.146;10.426;2023-09-30T09:34:02;6.47;;;2.90;;
74241;SDS011;62599;49.146;10.426;2023-09-30T09:36:39;6.93;;;3.13;;
74241;SDS011;62599;49.146;10.426;2023-09-30T09:39:05;6.85;;;3.20;;
74241;SDS011;62599;49.146;10.426;2023-09-30T09:41:38;3.83;;;2.10;;
74241;SDS011;62599;49.146;10.426;2023-09-30T09:44:18;8.68;;;2.00;;
74241;SDS011;62599;49.146;10.426;2023-09-30T09:46:47;6.75;;;3.63;;
74241;SDS011;62599;49.146;10.426;2023-09-30T09:49:15;5.63;;;3.63;;
74241;SDS011;62599;49.146;10.426;2023-09-30T09:51:45;5.40;;;2.10;;
74241;SDS011;62599;49.146;10.426;2023-09-30T09:54:12;6.68;;;2.30;;
74241;SDS011;62599;49.146;10.426;2023-09-30T09:56:39;5.43;;;2.05;;
74241;SDS011;62599;49.146;10.426;2023-09-30T09:59:05;6.32;;;2.90;;
74241;SDS011;62599;49.146;10.426;2023-09-30T10:01:35;8.65;;;3.15;;
74241;SDS011;62599;49.146;10.426;2023-09-30T10:04:01;4.22;;;2.33;;
74241;SDS011;62599;49.146;10.426;2023-09-30T10:06:27;4.22;;;2.58;;
74241;SDS011;62599;49.146;10.426;2023-09-30T10:08:53;6.10;;;3.30;;
74241;SDS011;62599;49.146;10.426;2023-09-30T10:11:22;5.25;;;2.15;;
74241;SDS011;62599;49.146;10.426;2023-09-30T10:19:17;6.35;;;3.67;;
74241;SDS011;62599;49.146;10.426;2023-09-30T10:24:45;7.15;;;3.00;;
74241;SDS011;62599;49.146;10.426;2023-09-30T10:29:56;10.88;;;3.92;;
74241;SDS011;62599;49.146;10.426;2023-09-30T10:32:22;7.57;;;2.70;;
74241;SDS011;62599;49.146;10.426;2023-09-30T10:34:49;10.93;;;3.45;;
74241;SDS011;62599;49.146;10.426;2023-09-30T10:37:20;8.88;;;3.22;;
74241;SDS011;62599;49.146;10.426;2023-09-30T10:39:54;7.90;;;3.75;;
74241;SDS011;62599;49.146;10.426;2023-09-30T10:51:10;4.22;;;2.00;;
74241;SDS011;62599;49.146;10.426;2023-09-30T10:53:43;6.55;;;4.15;;
74241;SDS011;62599;49.146;10.426;2023-09-30T10:56:25;6.97;;;3.63;;
74241;SDS011;62599;49.146;10.426;2023-09-30T10:59:00;7.05;;;3.75;;
74241;SDS011;62599;49.146;10.426;2023-09-30T11:01:31;7.35;;;4.15;;
74241;SDS011;62599;49.146;10.426;2023-09-30T11:04:02;9.43;;;3.83;;
74241;SDS011;62599;49.146;10.426;2023-09-30T11:06:30;10.27;;;3.47;;
74241;SDS011;62599;49.146;10.426;2023-09-30T11:08:57;5.85;;;2.60;;
74241;SDS011;62599;49.146;10.426;2023-09-30T11:11:32;6.65;;;3.50;;
74241;SDS011;62599;49.146;10.426;2023-09-30T11:13:57;7.32;;;2.85;;
74241;SDS011;62599;49.146;10.426;2023-09-30T11:16:22;5.03;;;2.63;;
74241;SDS011;62599;49.146;10.426;2023-09-30T11:18:52;7.40;;;3.50;;
74241;SDS011;62599;49.146;10.426;2023-09-30T11:21:18;6.50;;;2.03;;
74241;SDS011;62599;49.146;10.426;2023-09-30T11:23:44;13.65;;;3.10;;
74241;SDS011;62599;49.146;10.426;2023-09-30T11:26:09;13.40;;;3.72;;
74241;SDS011;62599;49.146;10.426;2023-09-30T11:28:36;7.60;;;2.47;;
74241;SDS011;62599;49.146;10.426;2023-09-30T11:31:12;9.60;;;3.63;;
74241;SDS011;62599;49.146;10.426;2023-09-30T11:33:55;9.57;;;4.10;;
74241;SDS011;62599;49.146;10.426;2023-09-30T11:36:22;12.48;;;3.72;;
74241;SDS011;62599;49.146;10.426;2023-09-30T11:38:48;9.63;;;2.90;;
74241;SDS011;62599;49.146;10.426;2023-09-30T11:41:16;7.82;;;3.03;;
74241;SDS011;62599;49.146;10.426;2023-09-30T11:51:52;9.82;;;3.78;;
74241;SDS011;62599;49.146;10.426;2023-09-30T11:54:18;8.60;;;4.07;;
74241;SDS011;62599;49.146;10.426;2023-09-30T11:56:43;7.50;;;4.25;;
74241;SDS011;62599;49.146;10.426;2023-09-30T11:59:10;10.85;;;2.95;;
74241;SDS011;62599;49.146;10.426;2023-09-30T12:01:38;12.10;;;3.20;;
74241;SDS011;62599;49.146;10.426;2023-09-30T12:04:04;6.88;;;2.88;;
74241;SDS011;62599;49.146;10.426;2023-09-30T12:06:29;6.63;;;2.83;;
74241;SDS011;62599;49.146;10.426;2023-09-30T12:08:55;7.90;;;3.67;;
74241;SDS011;62599;49.146;10.426;2023-09-30T12:11:20;10.18;;;3.80;;
74241;SDS011;62599;49.146;10.426;2023-09-30T12:13:48;11.32;;;3.60;;
74241;SDS011;62599;49.146;10.426;2023-09-30T12:16:15;7.88;;;3.17;;
74241;SDS011;62599;49.146;10.426;2023-09-30T12:18:41;8.10;;;3.55;;
74241;SDS011;62599;49.146;10.426;2023-09-30T12:21:07;7.22;;;2.67;;
74241;SDS011;62599;49.146;10.426;2023-09-30T12:23:37;7.15;;;3.28;;
74241;SDS011;62599;49.146;10.426;2023-09-30T12:26:03;6.63;;;3.13;;
74241;SDS011;62599;49.146;10.426;2023-09-30T12:28:30;6.53;;;4.35;;
74241;SDS011;62599;49.146;10.426;2023-09-30T12:30:57;10.05;;;3.35;;
74241;SDS011;62599;49.146;10.426;2023-09-30T12:33:23;7.50;;;3.13;;
74241;SDS011;62599;49.146;10.426;2023-09-30T12:35:49;11.27;;;4.07;;
74241;SDS011;62599;49.146;10.426;2023-09-30T12:38:14;10.50;;;3.30;;
74241;SDS011;62599;49.146;10.426;2023-09-30T12:40:41;9.00;;;3.10;;
74241;SDS011;62599;49.146;10.426;2023-09-30T12:43:08;7.20;;;3.33;;
74241;SDS011;62599;49.146;10.426;2023-09-30T12:45:34;9.82;;;3.97;;
74241;SDS011;62599;49.146;10.426;2023-09-30T12:47:59;8.63;;;3.53;;
74241;SDS011;62599;49.146;10.426;2023-09-30T12:50:24;10.97;;;3.70;;
74241;SDS011;62599;49.146;10.426;2023-09-30T12:52:50;7.87;;;2.87;;
74241;SDS011;62599;49.146;10.426;2023-09-30T12:55:15;6.87;;;3.17;;
74241;SDS011;62599;49.146;10.426;2023-09-30T12:57:40;7.65;;;3.00;;
74241;SDS011;62599;49.146;10.426;2023-09-30T13:00:06;6.13;;;3.22;;
74241;SDS011;62599;49.146;10.426;2023-09-30T13:02:34;7.78;;;3.25;;
74241;SDS011;62599;49.146;10.426;2023-09-30T13:05:00;5.60;;;3.25;;
74241;SDS011;62599;49.146;10.426;2023-09-30T13:07:25;5.87;;;3.17;;
74241;SDS011;62599;49.146;10.426;2023-09-30T13:09:50;6.57;;;2.95;;
74241;SDS011;62599;49.146;10.426;2023-09-30T13:12:16;10.05;;;3.13;;
74241;SDS011;62599;49.146;10.426;2023-09-30T13:14:42;6.90;;;3.28;;
74241;SDS011;62599;49.146;10.426;2023-09-30T13:17:07;8.13;;;3.70;;
74241;SDS011;62599;49.146;10.426;2023-09-30T13:19:33;7.82;;;3.38;;
74241;SDS011;62599;49.146;10.426;2023-09-30T13:21:58;6.05;;;3.10;;
74241;SDS011;62599;49.146;10.426;2023-09-30T13:24:23;5.70;;;2.92;;
74241;SDS011;62599;49.146;10.426;2023-09-30T13:26:52;6.97;;;2.87;;
74241;SDS011;62599;49.146;10.426;2023-09-30T13:29:18;4.45;;;2.90;;
74241;SDS011;62599;49.146;10.426;2023-09-30T13:31:43;6.03;;;3.30;;
74241;SDS011;62599;49.146;10.426;2023-09-30T13:34:10;11.23;;;3.40;;
74241;SDS011;62599;49.146;10.426;2023-09-30T13:36:37;8.90;;;3.63;;
74241;SDS011;62599;49.146;10.426;2023-09-30T13:39:03;9.52;;;3.38;;
74241;SDS011;62599;49.146;10.426;2023-09-30T13:41:33;7.35;;;2.97;;
74241;SDS011;62599;49.146;10.426;2023-09-30T13:43:59;9.07;;;3.35;;
74241;SDS011;62599;49.146;10.426;2023-09-30T13:46:25;10.13;;;3.28;;
74241;SDS011;62599;49.146;10.426;2023-09-30T13:48:53;7.80;;;3.55;;
74241;SDS011;62599;49.146;10.426;2023-09-30T13:51:18;8.18;;;3.58;;
74241;SDS011;62599;49.146;10.426;2023-09-30T13:53:43;7.03;;;2.50;;
74241;SDS011;62599;49.146;10.426;2023-09-30T13:56:09;7.97;;;3.40;;
74241;SDS011;62599;49.146;10.426;2023-09-30T13:58:35;8.80;;;3.95;;
74241;SDS011;62599;49.146;10.426;2023-09-30T14:01:00;9.07;;;3.13;;
74241;SDS011;62599;49.146;10.426;2023-09-30T14:03:26;6.97;;;2.80;;
74241;SDS011;62599;49.146;10.426;2023-09-30T14:05:51;9.55;;;3.92;;
74241;SDS011;62599;49.146;10.426;2023-09-30T14:08:18;8.10;;;3.55;;
74241;SDS011;62599;49.146;10.426;2023-09-30T14:10:43;9.55;;;3.33;;
74241;SDS011;62599;49.146;10.426;2023-09-30T14:13:09;8.25;;;3.55;;
74241;SDS011;62599;49.146;10.426;2023-09-30T14:15:35;7.15;;;3.47;;
74241;SDS011;62599;49.146;10.426;2023-09-30T14:18:01;7.88;;;3.47;;
74241;SDS011;62599;49.146;10.426;2023-09-30T14:20:27;8.15;;;3.10;;
74241;SDS011;62599;49.146;10.426;2023-09-30T14:22:52;7.05;;;3.58;;
74241;SDS011;62599;49.146;10.426;2023-09-30T14:25:20;9.27;;;3.42;;
74241;SDS011;62599;49.146;10.426;2023-09-30T14:27:46;7.78;;;3.10;;
74241;SDS011;62599;49.146;10.426;2023-09-30T14:30:12;8.07;;;3.65;;
74241;SDS011;62599;49.146;10.426;2023-09-30T14:32:38;7.68;;;3.50;;
74241;SDS011;62599;49.146;10.426;2023-09-30T14:35:05;14.57;;;3.75;;
74241;SDS011;62599;49.146;10.426;2023-09-30T14:37:31;10.77;;;3.50;;
74241;SDS011;62599;49.146;10.426;2023-09-30T14:39:57;6.65;;;3.65;;
74241;SDS011;62599;49.146;10.426;2023-09-30T14:42:22;8.70;;;3.23;;
74241;SDS011;62599;49.146;10.426;2023-09-30T14:44:47;6.43;;;3.70;;
74241;SDS011;62599;49.146;10.426;2023-09-30T14:47:13;8.52;;;3.35;;
74241;SDS011;62599;49.146;10.426;2023-09-30T14:49:38;8.50;;;3.47;;
74241;SDS011;62599;49.146;10.426;2023-09-30T14:52:03;6.07;;;3.33;;
74241;SDS011;62599;49.146;10.426;2023-09-30T14:54:30;9.90;;;4.13;;
74241;SDS011;62599;49.146;10.426;2023-09-30T14:56:55;14.93;;;4.00;;
74241;SDS011;62599;49.146;10.426;2023-09-30T14:59:21;7.88;;;3.70;;